sensor_id;sensor_type;location;lat;lon;timestamp;P1;durP1;ratioP1;P2;durP2;ratioP2
25199;SDS011;33094;48.782;9.162;2023-05-07T00:00:19;7.10;;;5.32;;
25199;SDS011;33094;48.782;9.162;2023-05-07T00:02:47;8.40;;;5.97;;
25199;SDS011;33094;48.782;9.162;2023-05-07T00:05:13;12.23;;;5.80;;
25199;SDS011;33094;48.782;9.162;2023-05-07T00:07:39;11.05;;;5.95;;
25199;SDS011;33094;48.782;9.162;2023-05-07T00:10:05;10.10;;;6.20;;
25199;SDS011;33094;48.782;9.162;2023-05-07T00:12:32;11.20;;;5.95;;
25199;SDS011;33094;48.782;9.162;2023-05-07T00:15:03;11.18;;;5.97;;
25199;SDS011;33094;48.782;9.162;2023-05-07T00:17:30;10.75;;;6.55;;
25199;SDS011;33094;48.782;9.162;2023-05-07T00:19:56;10.63;;;7.53;;
25199;SDS011;33094;48.782;9.162;2023-05-07T00:22:21;12.15;;;7.97;;
25199;SDS011;33094;48.782;9.162;2023-05-07T00:24:47;15.15;;;7.93;;
25199;SDS011;33094;48.782;9.162;2023-05-07T00:27:13;11.10;;;7.07;;
25199;SDS011;33094;48.782;9.162;2023-05-07T00:29:38;9.90;;;7.20;;
25199;SDS011;33094;48.782;9.162;2023-05-07T00:32:04;9.73;;;7.18;;
25199;SDS011;33094;48.782;9.162;2023-05-07T00:34:30;13.85;;;7.20;;
25199;SDS011;33094;48.782;9.162;2023-05-07T00:36:55;11.27;;;7.38;;
25199;SDS011;33094;48.782;9.162;2023-05-07T00:39:21;10.10;;;7.38;;
25199;SDS011;33094;48.782;9.162;2023-05-07T00:41:46;12.90;;;7.60;;
25199;SDS011;33094;48.782;9.162;2023-05-07T00:44:12;12.85;;;6.63;;
25199;SDS011;33094;48.782;9.162;2023-05-07T00:46:39;15.95;;;6.78;;
25199;SDS011;33094;48.782;9.162;2023-05-07T00:49:05;10.85;;;6.55;;
25199;SDS011;33094;48.782;9.162;2023-05-07T00:51:31;14.13;;;6.95;;
25199;SDS011;33094;48.782;9.162;2023-05-07T00:53:57;8.85;;;6.07;;
25199;SDS011;33094;48.782;9.162;2023-05-07T00:56:22;7.55;;;5.85;;
25199;SDS011;33094;48.782;9.162;2023-05-07T00:58:49;7.70;;;5.33;;
25199;SDS011;33094;48.782;9.162;2023-05-07T01:01:14;7.05;;;4.72;;
25199;SDS011;33094;48.782;9.162;2023-05-07T01:03:41;6.13;;;5.07;;
25199;SDS011;33094;48.782;9.162;2023-05-07T01:06:07;7.45;;;6.03;;
25199;SDS011;33094;48.782;9.162;2023-05-07T01:08:35;8.10;;;5.22;;
25199;SDS011;33094;48.782;9.162;2023-05-07T01:11:01;7.88;;;5.65;;
25199;SDS011;33094;48.782;9.162;2023-05-07T01:15:54;6.70;;;5.00;;
25199;SDS011;33094;48.782;9.162;2023-05-07T01:18:20;8.13;;;4.93;;
25199;SDS011;33094;48.782;9.162;2023-05-07T01:20:46;6.45;;;4.97;;
25199;SDS011;33094;48.782;9.162;2023-05-07T01:23:12;6.90;;;5.00;;
25199;SDS011;33094;48.782;9.162;2023-05-07T01:25:38;6.40;;;5.28;;
25199;SDS011;33094;48.782;9.162;2023-05-07T01:28:03;7.93;;;5.18;;
25199;SDS011;33094;48.782;9.162;2023-05-07T01:33:08;7.50;;;5.07;;
25199;SDS011;33094;48.782;9.162;2023-05-07T01:35:37;10.02;;;5.38;;
25199;SDS011;33094;48.782;9.162;2023-05-07T01:38:05;7.65;;;4.93;;
25199;SDS011;33094;48.782;9.162;2023-05-07T01:40:31;6.53;;;5.15;;
25199;SDS011;33094;48.782;9.162;2023-05-07T01:42:59;8.30;;;5.20;;
25199;SDS011;33094;48.782;9.162;2023-05-07T01:45:25;7.07;;;4.95;;
25199;SDS011;33094;48.782;9.162;2023-05-07T01:47:52;7.27;;;5.33;;
25199;SDS011;33094;48.782;9.162;2023-05-07T01:50:19;10.05;;;5.00;;
25199;SDS011;33094;48.782;9.162;2023-05-07T01:52:46;10.50;;;5.65;;
25199;SDS011;33094;48.782;9.162;2023-05-07T01:55:14;10.35;;;5.35;;
25199;SDS011;33094;48.782;9.162;2023-05-07T01:57:40;7.55;;;5.55;;
25199;SDS011;33094;48.782;9.162;2023-05-07T02:00:06;6.82;;;4.95;;
25199;SDS011;33094;48.782;9.162;2023-05-07T02:02:33;4.93;;;4.43;;
25199;SDS011;33094;48.782;9.162;2023-05-07T02:04:59;6.40;;;4.38;;
25199;SDS011;33094;48.782;9.162;2023-05-07T02:07:26;9.77;;;5.07;;
25199;SDS011;33094;48.782;9.162;2023-05-07T02:09:52;6.38;;;5.03;;
25199;SDS011;33094;48.782;9.162;2023-05-07T02:12:17;9.55;;;5.50;;
25199;SDS011;33094;48.782;9.162;2023-05-07T02:14:43;6.65;;;4.72;;
25199;SDS011;33094;48.782;9.162;2023-05-07T02:17:08;8.52;;;4.95;;
25199;SDS011;33094;48.782;9.162;2023-05-07T02:19:34;5.70;;;5.10;;
25199;SDS011;33094;48.782;9.162;2023-05-07T02:22:00;11.32;;;4.68;;
25199;SDS011;33094;48.782;9.162;2023-05-07T02:24:25;5.65;;;4.85;;
25199;SDS011;33094;48.782;9.162;2023-05-07T02:26:51;7.88;;;4.95;;
25199;SDS011;33094;48.782;9.162;2023-05-07T02:29:16;6.95;;;5.05;;
25199;SDS011;33094;48.782;9.162;2023-05-07T02:31:42;9.23;;;4.85;;
25199;SDS011;33094;48.782;9.162;2023-05-07T02:34:07;5.53;;;4.47;;
25199;SDS011;33094;48.782;9.162;2023-05-07T02:36:33;10.50;;;5.80;;
25199;SDS011;33094;48.782;9.162;2023-05-07T02:38:58;6.35;;;5.25;;
25199;SDS011;33094;48.782;9.162;2023-05-07T02:41:24;6.45;;;5.40;;
25199;SDS011;33094;48.782;9.162;2023-05-07T02:43:50;11.10;;;4.97;;
25199;SDS011;33094;48.782;9.162;2023-05-07T02:46:15;9.02;;;5.35;;
25199;SDS011;33094;48.782;9.162;2023-05-07T02:48:41;6.80;;;4.97;;
25199;SDS011;33094;48.782;9.162;2023-05-07T02:51:06;8.93;;;5.95;;
25199;SDS011;33094;48.782;9.162;2023-05-07T02:53:32;8.80;;;6.07;;
25199;SDS011;33094;48.782;9.162;2023-05-07T02:55:59;18.35;;;6.80;;
25199;SDS011;33094;48.782;9.162;2023-05-07T02:58:26;10.13;;;5.32;;
25199;SDS011;33094;48.782;9.162;2023-05-07T03:00:52;5.87;;;5.03;;
25199;SDS011;33094;48.782;9.162;2023-05-07T03:03:19;8.35;;;5.32;;
25199;SDS011;33094;48.782;9.162;2023-05-07T03:05:45;8.20;;;5.20;;
25199;SDS011;33094;48.782;9.162;2023-05-07T03:08:11;8.63;;;5.93;;
25199;SDS011;33094;48.782;9.162;2023-05-07T03:10:37;9.10;;;5.20;;
25199;SDS011;33094;48.782;9.162;2023-05-07T03:13:02;7.68;;;5.40;;
25199;SDS011;33094;48.782;9.162;2023-05-07T03:15:28;10.23;;;6.47;;
25199;SDS011;33094;48.782;9.162;2023-05-07T03:17:54;8.03;;;5.17;;
25199;SDS011;33094;48.782;9.162;2023-05-07T03:20:20;12.27;;;6.18;;
25199;SDS011;33094;48.782;9.162;2023-05-07T03:22:46;8.05;;;5.90;;
25199;SDS011;33094;48.782;9.162;2023-05-07T03:25:11;11.50;;;5.95;;
25199;SDS011;33094;48.782;9.162;2023-05-07T03:27:37;7.20;;;5.25;;
25199;SDS011;33094;48.782;9.162;2023-05-07T03:30:03;8.75;;;6.30;;
25199;SDS011;33094;48.782;9.162;2023-05-07T03:32:29;11.38;;;6.32;;
25199;SDS011;33094;48.782;9.162;2023-05-07T03:34:54;9.27;;;6.18;;
25199;SDS011;33094;48.782;9.162;2023-05-07T03:37:20;10.02;;;7.32;;
25199;SDS011;33094;48.782;9.162;2023-05-07T03:39:46;11.35;;;6.93;;
25199;SDS011;33094;48.782;9.162;2023-05-07T03:42:12;8.55;;;7.30;;
25199;SDS011;33094;48.782;9.162;2023-05-07T03:44:38;9.15;;;6.28;;
25199;SDS011;33094;48.782;9.162;2023-05-07T03:47:03;13.20;;;7.28;;
25199;SDS011;33094;48.782;9.162;2023-05-07T03:49:29;8.80;;;7.05;;
25199;SDS011;33094;48.782;9.162;2023-05-07T03:51:54;10.80;;;7.10;;
25199;SDS011;33094;48.782;9.162;2023-05-07T03:54:20;19.15;;;7.55;;
25199;SDS011;33094;48.782;9.162;2023-05-07T03:56:46;11.00;;;6.72;;
25199;SDS011;33094;48.782;9.162;2023-05-07T03:59:14;7.78;;;6.50;;
25199;SDS011;33094;48.782;9.162;2023-05-07T04:01:40;13.45;;;6.90;;
25199;SDS011;33094;48.782;9.162;2023-05-07T04:04:06;12.65;;;7.10;;
25199;SDS011;33094;48.782;9.162;2023-05-07T04:06:31;11.15;;;6.50;;
25199;SDS011;33094;48.782;9.162;2023-05-07T04:08:57;10.05;;;6.30;;
25199;SDS011;33094;48.782;9.162;2023-05-07T04:11:23;14.10;;;7.60;;
25199;SDS011;33094;48.782;9.162;2023-05-07T04:13:49;16.58;;;6.85;;
25199;SDS011;33094;48.782;9.162;2023-05-07T04:16:14;10.75;;;7.18;;
25199;SDS011;33094;48.782;9.162;2023-05-07T04:18:40;14.18;;;6.80;;
25199;SDS011;33094;48.782;9.162;2023-05-07T04:21:13;13.70;;;6.97;;
25199;SDS011;33094;48.782;9.162;2023-05-07T04:23:48;16.65;;;6.75;;
25199;SDS011;33094;48.782;9.162;2023-05-07T04:26:14;13.07;;;6.55;;
25199;SDS011;33094;48.782;9.162;2023-05-07T04:28:40;9.45;;;6.40;;
25199;SDS011;33094;48.782;9.162;2023-05-07T04:31:06;10.43;;;7.13;;
25199;SDS011;33094;48.782;9.162;2023-05-07T04:33:33;11.30;;;7.30;;
25199;SDS011;33094;48.782;9.162;2023-05-07T04:36:01;10.33;;;7.23;;
25199;SDS011;33094;48.782;9.162;2023-05-07T04:38:30;12.23;;;7.18;;
25199;SDS011;33094;48.782;9.162;2023-05-07T04:40:56;10.65;;;7.03;;
25199;SDS011;33094;48.782;9.162;2023-05-07T04:43:23;10.60;;;6.50;;
25199;SDS011;33094;48.782;9.162;2023-05-07T04:45:50;10.07;;;6.75;;
25199;SDS011;33094;48.782;9.162;2023-05-07T04:48:16;14.70;;;6.60;;
25199;SDS011;33094;48.782;9.162;2023-05-07T04:50:44;8.13;;;6.25;;
25199;SDS011;33094;48.782;9.162;2023-05-07T04:53:12;8.60;;;6.20;;
25199;SDS011;33094;48.782;9.162;2023-05-07T04:55:37;10.93;;;6.18;;
25199;SDS011;33094;48.782;9.162;2023-05-07T04:58:03;8.82;;;6.15;;
25199;SDS011;33094;48.782;9.162;2023-05-07T05:00:30;9.95;;;6.13;;
25199;SDS011;33094;48.782;9.162;2023-05-07T05:02:55;9.30;;;5.97;;
25199;SDS011;33094;48.782;9.162;2023-05-07T05:05:21;10.57;;;6.72;;
25199;SDS011;33094;48.782;9.162;2023-05-07T05:07:47;9.77;;;6.60;;
25199;SDS011;33094;48.782;9.162;2023-05-07T05:10:13;10.93;;;7.30;;
25199;SDS011;33094;48.782;9.162;2023-05-07T05:12:39;10.88;;;7.47;;
25199;SDS011;33094;48.782;9.162;2023-05-07T05:15:05;8.85;;;6.80;;
25199;SDS011;33094;48.782;9.162;2023-05-07T05:17:31;7.93;;;6.77;;
25199;SDS011;33094;48.782;9.162;2023-05-07T05:19:56;11.52;;;6.68;;
25199;SDS011;33094;48.782;9.162;2023-05-07T05:22:22;10.00;;;7.25;;
25199;SDS011;33094;48.782;9.162;2023-05-07T05:24:48;16.58;;;7.47;;
25199;SDS011;33094;48.782;9.162;2023-05-07T05:27:13;15.18;;;7.93;;
25199;SDS011;33094;48.782;9.162;2023-05-07T05:29:39;15.00;;;7.40;;
25199;SDS011;33094;48.782;9.162;2023-05-07T05:32:04;11.23;;;7.68;;
25199;SDS011;33094;48.782;9.162;2023-05-07T05:34:30;13.10;;;7.50;;
25199;SDS011;33094;48.782;9.162;2023-05-07T05:36:55;14.02;;;7.20;;
25199;SDS011;33094;48.782;9.162;2023-05-07T05:39:21;14.07;;;7.13;;
25199;SDS011;33094;48.782;9.162;2023-05-07T05:41:48;11.77;;;7.03;;
25199;SDS011;33094;48.782;9.162;2023-05-07T05:44:13;9.23;;;6.70;;
25199;SDS011;33094;48.782;9.162;2023-05-07T05:46:39;9.68;;;6.43;;
25199;SDS011;33094;48.782;9.162;2023-05-07T05:49:05;8.50;;;6.28;;
25199;SDS011;33094;48.782;9.162;2023-05-07T05:51:30;10.73;;;6.35;;
25199;SDS011;33094;48.782;9.162;2023-05-07T05:53:56;7.75;;;6.00;;
25199;SDS011;33094;48.782;9.162;2023-05-07T05:56:22;13.73;;;7.20;;
25199;SDS011;33094;48.782;9.162;2023-05-07T05:58:47;9.82;;;6.57;;
25199;SDS011;33094;48.782;9.162;2023-05-07T06:01:13;10.13;;;6.43;;
25199;SDS011;33094;48.782;9.162;2023-05-07T06:03:38;10.63;;;6.78;;
25199;SDS011;33094;48.782;9.162;2023-05-07T06:06:04;11.82;;;7.40;;
25199;SDS011;33094;48.782;9.162;2023-05-07T06:08:30;13.00;;;7.63;;
25199;SDS011;33094;48.782;9.162;2023-05-07T06:10:56;14.55;;;8.00;;
25199;SDS011;33094;48.782;9.162;2023-05-07T06:13:22;10.00;;;7.60;;
25199;SDS011;33094;48.782;9.162;2023-05-07T06:15:48;11.87;;;8.47;;
25199;SDS011;33094;48.782;9.162;2023-05-07T06:18:14;10.25;;;7.65;;
25199;SDS011;33094;48.782;9.162;2023-05-07T06:20:40;10.20;;;7.28;;
25199;SDS011;33094;48.782;9.162;2023-05-07T06:23:05;9.63;;;7.80;;
25199;SDS011;33094;48.782;9.162;2023-05-07T06:25:31;10.18;;;8.35;;
25199;SDS011;33094;48.782;9.162;2023-05-07T06:54:10;11.65;;;8.25;;
25199;SDS011;33094;48.782;9.162;2023-05-07T07:03:18;13.15;;;8.77;;
25199;SDS011;33094;48.782;9.162;2023-05-07T07:06:09;14.45;;;7.90;;
25199;SDS011;33094;48.782;9.162;2023-05-07T07:29:33;10.70;;;7.40;;
25199;SDS011;33094;48.782;9.162;2023-05-07T07:32:10;13.15;;;6.68;;
25199;SDS011;33094;48.782;9.162;2023-05-07T07:35:38;8.00;;;6.28;;
25199;SDS011;33094;48.782;9.162;2023-05-07T07:41:53;8.77;;;6.00;;
25199;SDS011;33094;48.782;9.162;2023-05-07T07:44:18;11.18;;;6.03;;
25199;SDS011;33094;48.782;9.162;2023-05-07T07:46:59;10.67;;;5.53;;
25199;SDS011;33094;48.782;9.162;2023-05-07T07:53:23;11.73;;;5.22;;
25199;SDS011;33094;48.782;9.162;2023-05-07T07:56:01;8.25;;;4.82;;
25199;SDS011;33094;48.782;9.162;2023-05-07T07:58:29;7.88;;;5.32;;
25199;SDS011;33094;48.782;9.162;2023-05-07T08:00:55;7.63;;;5.07;;
25199;SDS011;33094;48.782;9.162;2023-05-07T08:03:21;8.47;;;4.93;;
25199;SDS011;33094;48.782;9.162;2023-05-07T08:05:47;7.03;;;4.22;;
25199;SDS011;33094;48.782;9.162;2023-05-07T08:11:37;4.30;;;3.90;;
25199;SDS011;33094;48.782;9.162;2023-05-07T08:14:09;5.77;;;3.27;;
25199;SDS011;33094;48.782;9.162;2023-05-07T08:16:35;6.13;;;4.00;;
25199;SDS011;33094;48.782;9.162;2023-05-07T08:19:00;7.53;;;3.63;;
25199;SDS011;33094;48.782;9.162;2023-05-07T08:21:26;6.23;;;3.63;;
25199;SDS011;33094;48.782;9.162;2023-05-07T09:01:03;5.72;;;2.80;;
25199;SDS011;33094;48.782;9.162;2023-05-07T09:09:35;3.67;;;2.50;;
25199;SDS011;33094;48.782;9.162;2023-05-07T09:12:02;4.80;;;2.38;;
25199;SDS011;33094;48.782;9.162;2023-05-07T09:14:28;2.75;;;2.13;;
25199;SDS011;33094;48.782;9.162;2023-05-07T09:16:55;2.70;;;2.28;;
25199;SDS011;33094;48.782;9.162;2023-05-07T09:19:25;2.78;;;2.15;;
25199;SDS011;33094;48.782;9.162;2023-05-07T09:21:59;3.78;;;2.35;;
25199;SDS011;33094;48.782;9.162;2023-05-07T09:24:27;2.75;;;2.33;;
25199;SDS011;33094;48.782;9.162;2023-05-07T09:26:57;5.28;;;1.80;;
25199;SDS011;33094;48.782;9.162;2023-05-07T09:29:23;4.82;;;2.25;;
25199;SDS011;33094;48.782;9.162;2023-05-07T09:31:54;4.97;;;2.20;;
25199;SDS011;33094;48.782;9.162;2023-05-07T09:36:45;2.35;;;1.88;;
25199;SDS011;33094;48.782;9.162;2023-05-07T09:39:11;3.35;;;1.65;;
25199;SDS011;33094;48.782;9.162;2023-05-07T09:41:44;1.77;;;1.65;;
25199;SDS011;33094;48.782;9.162;2023-05-07T09:44:20;2.75;;;1.67;;
25199;SDS011;33094;48.782;9.162;2023-05-07T09:46:52;2.08;;;1.90;;
25199;SDS011;33094;48.782;9.162;2023-05-07T09:49:21;1.92;;;1.73;;
25199;SDS011;33094;48.782;9.162;2023-05-07T09:51:48;2.45;;;1.60;;
25199;SDS011;33094;48.782;9.162;2023-05-07T09:54:15;3.70;;;1.80;;
25199;SDS011;33094;48.782;9.162;2023-05-07T09:56:45;1.98;;;1.77;;
25199;SDS011;33094;48.782;9.162;2023-05-07T09:59:13;2.53;;;1.80;;
25199;SDS011;33094;48.782;9.162;2023-05-07T10:01:41;3.20;;;2.13;;
25199;SDS011;33094;48.782;9.162;2023-05-07T10:04:12;2.17;;;2.00;;
25199;SDS011;33094;48.782;9.162;2023-05-07T10:06:39;3.15;;;2.00;;
25199;SDS011;33094;48.782;9.162;2023-05-07T10:09:06;6.30;;;3.17;;
25199;SDS011;33094;48.782;9.162;2023-05-07T10:11:35;3.22;;;2.45;;
25199;SDS011;33094;48.782;9.162;2023-05-07T10:14:02;3.20;;;2.20;;
25199;SDS011;33094;48.782;9.162;2023-05-07T10:16:34;3.97;;;2.00;;
25199;SDS011;33094;48.782;9.162;2023-05-07T10:19:04;3.80;;;2.10;;
25199;SDS011;33094;48.782;9.162;2023-05-07T10:21:31;4.05;;;2.00;;
25199;SDS011;33094;48.782;9.162;2023-05-07T10:26:59;5.28;;;2.60;;
25199;SDS011;33094;48.782;9.162;2023-05-07T10:34:53;7.03;;;2.05;;
25199;SDS011;33094;48.782;9.162;2023-05-07T10:37:20;5.57;;;2.20;;
25199;SDS011;33094;48.782;9.162;2023-05-07T10:39:53;3.00;;;2.20;;
25199;SDS011;33094;48.782;9.162;2023-05-07T10:42:19;1.77;;;1.67;;
25199;SDS011;33094;48.782;9.162;2023-05-07T10:44:45;2.38;;;2.00;;
25199;SDS011;33094;48.782;9.162;2023-05-07T10:47:12;3.35;;;2.10;;
25199;SDS011;33094;48.782;9.162;2023-05-07T10:54:42;2.90;;;1.92;;
25199;SDS011;33094;48.782;9.162;2023-05-07T10:59:57;14.50;;;11.18;;
25199;SDS011;33094;48.782;9.162;2023-05-07T11:02:22;6.80;;;2.53;;
25199;SDS011;33094;48.782;9.162;2023-05-07T11:05:24;4.45;;;2.88;;
25199;SDS011;33094;48.782;9.162;2023-05-07T11:17:07;4.30;;;2.20;;
25199;SDS011;33094;48.782;9.162;2023-05-07T11:19:50;4.60;;;2.00;;
25199;SDS011;33094;48.782;9.162;2023-05-07T11:25:04;5.20;;;2.53;;
25199;SDS011;33094;48.782;9.162;2023-05-07T11:27:31;3.38;;;2.03;;
25199;SDS011;33094;48.782;9.162;2023-05-07T11:32:26;3.38;;;2.17;;
25199;SDS011;33094;48.782;9.162;2023-05-07T11:34:54;3.35;;;2.42;;
25199;SDS011;33094;48.782;9.162;2023-05-07T11:37:21;3.03;;;2.28;;
25199;SDS011;33094;48.782;9.162;2023-05-07T11:39:48;3.60;;;2.20;;
25199;SDS011;33094;48.782;9.162;2023-05-07T11:42:31;5.30;;;2.58;;
25199;SDS011;33094;48.782;9.162;2023-05-07T11:44:58;3.55;;;2.58;;
25199;SDS011;33094;48.782;9.162;2023-05-07T11:47:24;2.40;;;2.20;;
25199;SDS011;33094;48.782;9.162;2023-05-07T11:49:53;3.03;;;2.43;;
25199;SDS011;33094;48.782;9.162;2023-05-07T11:52:20;3.63;;;2.95;;
25199;SDS011;33094;48.782;9.162;2023-05-07T11:54:54;2.70;;;2.33;;
25199;SDS011;33094;48.782;9.162;2023-05-07T11:57:21;3.47;;;3.00;;
25199;SDS011;33094;48.782;9.162;2023-05-07T11:59:52;4.45;;;2.65;;
25199;SDS011;33094;48.782;9.162;2023-05-07T12:02:21;4.68;;;3.05;;
25199;SDS011;33094;48.782;9.162;2023-05-07T12:04:47;3.83;;;2.50;;
25199;SDS011;33094;48.782;9.162;2023-05-07T12:07:13;3.13;;;2.33;;
25199;SDS011;33094;48.782;9.162;2023-05-07T12:09:40;2.50;;;2.30;;
25199;SDS011;33094;48.782;9.162;2023-05-07T12:14:32;3.95;;;2.92;;
25199;SDS011;33094;48.782;9.162;2023-05-07T12:17:02;3.72;;;2.80;;
25199;SDS011;33094;48.782;9.162;2023-05-07T12:19:30;5.20;;;3.25;;
25199;SDS011;33094;48.782;9.162;2023-05-07T12:24:22;9.65;;;3.97;;
25199;SDS011;33094;48.782;9.162;2023-05-07T12:26:48;7.43;;;4.07;;
25199;SDS011;33094;48.782;9.162;2023-05-07T12:29:14;8.97;;;4.27;;
25199;SDS011;33094;48.782;9.162;2023-05-07T12:31:40;10.38;;;5.45;;
25199;SDS011;33094;48.782;9.162;2023-05-07T12:34:06;9.63;;;4.10;;
25199;SDS011;33094;48.782;9.162;2023-05-07T12:36:39;8.98;;;4.05;;
25199;SDS011;33094;48.782;9.162;2023-05-07T12:39:05;7.78;;;4.15;;
25199;SDS011;33094;48.782;9.162;2023-05-07T12:41:35;13.27;;;4.70;;
25199;SDS011;33094;48.782;9.162;2023-05-07T12:44:22;9.10;;;3.95;;
25199;SDS011;33094;48.782;9.162;2023-05-07T12:46:49;10.93;;;4.60;;
25199;SDS011;33094;48.782;9.162;2023-05-07T12:49:14;15.90;;;5.72;;
25199;SDS011;33094;48.782;9.162;2023-05-07T12:51:40;14.25;;;7.13;;
25199;SDS011;33094;48.782;9.162;2023-05-07T12:54:06;12.65;;;5.25;;
25199;SDS011;33094;48.782;9.162;2023-05-07T12:56:31;5.95;;;3.15;;
25199;SDS011;33094;48.782;9.162;2023-05-07T12:59:00;3.97;;;1.77;;
25199;SDS011;33094;48.782;9.162;2023-05-07T13:01:29;5.75;;;2.05;;
25199;SDS011;33094;48.782;9.162;2023-05-07T13:03:56;7.15;;;2.20;;
25199;SDS011;33094;48.782;9.162;2023-05-07T13:06:26;8.45;;;2.17;;
25199;SDS011;33094;48.782;9.162;2023-05-07T13:08:51;8.50;;;3.00;;
25199;SDS011;33094;48.782;9.162;2023-05-07T13:11:17;8.13;;;3.20;;
25199;SDS011;33094;48.782;9.162;2023-05-07T13:13:43;7.95;;;3.00;;
25199;SDS011;33094;48.782;9.162;2023-05-07T13:16:09;6.15;;;2.28;;
25199;SDS011;33094;48.782;9.162;2023-05-07T13:21:02;22.50;;;2.80;;
25199;SDS011;33094;48.782;9.162;2023-05-07T13:23:28;8.63;;;3.75;;
25199;SDS011;33094;48.782;9.162;2023-05-07T13:25:53;6.85;;;3.40;;
25199;SDS011;33094;48.782;9.162;2023-05-07T13:28:20;7.72;;;3.08;;
25199;SDS011;33094;48.782;9.162;2023-05-07T13:30:46;5.75;;;3.30;;
25199;SDS011;33094;48.782;9.162;2023-05-07T13:33:12;10.40;;;2.92;;
25199;SDS011;33094;48.782;9.162;2023-05-07T13:35:38;5.93;;;4.07;;
25199;SDS011;33094;48.782;9.162;2023-05-07T13:38:04;7.72;;;3.75;;
25199;SDS011;33094;48.782;9.162;2023-05-07T13:40:30;6.03;;;3.20;;
25199;SDS011;33094;48.782;9.162;2023-05-07T13:42:59;7.50;;;2.78;;
25199;SDS011;33094;48.782;9.162;2023-05-07T13:45:27;7.85;;;3.40;;
25199;SDS011;33094;48.782;9.162;2023-05-07T13:47:56;6.75;;;2.55;;
25199;SDS011;33094;48.782;9.162;2023-05-07T13:50:22;5.67;;;2.43;;
25199;SDS011;33094;48.782;9.162;2023-05-07T13:52:47;5.22;;;1.92;;
25199;SDS011;33094;48.782;9.162;2023-05-07T13:55:24;5.43;;;2.33;;
25199;SDS011;33094;48.782;9.162;2023-05-07T13:58:00;5.15;;;1.58;;
25199;SDS011;33094;48.782;9.162;2023-05-07T14:00:27;4.07;;;1.73;;
25199;SDS011;33094;48.782;9.162;2023-05-07T14:02:54;2.85;;;1.60;;
25199;SDS011;33094;48.782;9.162;2023-05-07T14:05:21;4.05;;;1.80;;
25199;SDS011;33094;48.782;9.162;2023-05-07T14:07:48;3.78;;;1.90;;
25199;SDS011;33094;48.782;9.162;2023-05-07T14:10:16;6.97;;;2.30;;
25199;SDS011;33094;48.782;9.162;2023-05-07T14:12:43;4.80;;;2.50;;
25199;SDS011;33094;48.782;9.162;2023-05-07T14:17:35;3.90;;;2.60;;
25199;SDS011;33094;48.782;9.162;2023-05-07T14:20:01;7.22;;;3.42;;
25199;SDS011;33094;48.782;9.162;2023-05-07T14:22:27;4.47;;;2.92;;
25199;SDS011;33094;48.782;9.162;2023-05-07T14:24:52;6.70;;;2.90;;
25199;SDS011;33094;48.782;9.162;2023-05-07T14:27:18;7.18;;;4.07;;
25199;SDS011;33094;48.782;9.162;2023-05-07T14:29:43;6.10;;;3.40;;
25199;SDS011;33094;48.782;9.162;2023-05-07T14:32:10;16.98;;;3.72;;
25199;SDS011;33094;48.782;9.162;2023-05-07T14:34:36;9.30;;;3.60;;
25199;SDS011;33094;48.782;9.162;2023-05-07T14:37:02;6.18;;;3.53;;
25199;SDS011;33094;48.782;9.162;2023-05-07T14:39:27;9.35;;;3.03;;
25199;SDS011;33094;48.782;9.162;2023-05-07T14:41:53;8.00;;;3.10;;
25199;SDS011;33094;48.782;9.162;2023-05-07T14:44:20;8.77;;;3.78;;
25199;SDS011;33094;48.782;9.162;2023-05-07T14:46:46;14.15;;;4.40;;
25199;SDS011;33094;48.782;9.162;2023-05-07T14:49:13;13.18;;;5.22;;
25199;SDS011;33094;48.782;9.162;2023-05-07T14:51:42;7.22;;;4.50;;
25199;SDS011;33094;48.782;9.162;2023-05-07T14:54:09;8.30;;;4.20;;
25199;SDS011;33094;48.782;9.162;2023-05-07T14:56:35;11.48;;;5.10;;
25199;SDS011;33094;48.782;9.162;2023-05-07T14:59:01;17.10;;;7.03;;
25199;SDS011;33094;48.782;9.162;2023-05-07T15:01:28;10.88;;;6.15;;
25199;SDS011;33094;48.782;9.162;2023-05-07T15:03:54;10.88;;;6.90;;
25199;SDS011;33094;48.782;9.162;2023-05-07T15:06:20;10.15;;;5.82;;
25199;SDS011;33094;48.782;9.162;2023-05-07T15:08:46;13.20;;;6.13;;
25199;SDS011;33094;48.782;9.162;2023-05-07T15:11:13;11.02;;;6.38;;
25199;SDS011;33094;48.782;9.162;2023-05-07T15:13:39;10.70;;;4.90;;
25199;SDS011;33094;48.782;9.162;2023-05-07T15:16:05;7.88;;;4.47;;
25199;SDS011;33094;48.782;9.162;2023-05-07T15:18:30;9.25;;;5.45;;
25199;SDS011;33094;48.782;9.162;2023-05-07T15:20:56;6.85;;;4.13;;
25199;SDS011;33094;48.782;9.162;2023-05-07T15:23:22;11.85;;;4.97;;
25199;SDS011;33094;48.782;9.162;2023-05-07T15:25:48;7.30;;;4.32;;
25199;SDS011;33094;48.782;9.162;2023-05-07T15:28:14;7.78;;;4.78;;
25199;SDS011;33094;48.782;9.162;2023-05-07T15:30:39;11.38;;;6.07;;
25199;SDS011;33094;48.782;9.162;2023-05-07T15:33:05;10.80;;;4.55;;
25199;SDS011;33094;48.782;9.162;2023-05-07T15:35:30;9.00;;;4.40;;
25199;SDS011;33094;48.782;9.162;2023-05-07T15:37:56;6.65;;;4.50;;
25199;SDS011;33094;48.782;9.162;2023-05-07T15:40:22;11.65;;;5.57;;
25199;SDS011;33094;48.782;9.162;2023-05-07T15:42:48;13.52;;;5.63;;
25199;SDS011;33094;48.782;9.162;2023-05-07T15:45:13;12.00;;;5.10;;
25199;SDS011;33094;48.782;9.162;2023-05-07T15:47:39;8.85;;;4.15;;
25199;SDS011;33094;48.782;9.162;2023-05-07T15:50:05;6.15;;;3.85;;
25199;SDS011;33094;48.782;9.162;2023-05-07T15:52:31;6.47;;;4.23;;
25199;SDS011;33094;48.782;9.162;2023-05-07T15:54:57;6.00;;;4.50;;
25199;SDS011;33094;48.782;9.162;2023-05-07T15:57:23;10.13;;;5.05;;
25199;SDS011;33094;48.782;9.162;2023-05-07T15:59:49;6.87;;;5.60;;
25199;SDS011;33094;48.782;9.162;2023-05-07T16:02:15;7.93;;;5.13;;
25199;SDS011;33094;48.782;9.162;2023-05-07T16:04:41;6.30;;;4.70;;
25199;SDS011;33094;48.782;9.162;2023-05-07T16:07:06;7.32;;;4.65;;
25199;SDS011;33094;48.782;9.162;2023-05-07T16:09:32;5.65;;;3.88;;
25199;SDS011;33094;48.782;9.162;2023-05-07T16:12:01;8.88;;;4.80;;
25199;SDS011;33094;48.782;9.162;2023-05-07T16:14:27;6.30;;;4.30;;
25199;SDS011;33094;48.782;9.162;2023-05-07T16:16:53;5.55;;;4.22;;
25199;SDS011;33094;48.782;9.162;2023-05-07T16:19:19;8.48;;;5.05;;
25199;SDS011;33094;48.782;9.162;2023-05-07T16:21:44;5.68;;;4.55;;
25199;SDS011;33094;48.782;9.162;2023-05-07T16:24:10;6.53;;;4.20;;
25199;SDS011;33094;48.782;9.162;2023-05-07T16:26:35;5.82;;;5.22;;
25199;SDS011;33094;48.782;9.162;2023-05-07T16:29:03;6.13;;;4.97;;
25199;SDS011;33094;48.782;9.162;2023-05-07T16:31:28;7.32;;;4.80;;
25199;SDS011;33094;48.782;9.162;2023-05-07T16:33:54;8.05;;;4.90;;
25199;SDS011;33094;48.782;9.162;2023-05-07T16:36:20;8.83;;;5.33;;
25199;SDS011;33094;48.782;9.162;2023-05-07T16:38:46;6.43;;;4.97;;
25199;SDS011;33094;48.782;9.162;2023-05-07T16:41:11;6.97;;;5.30;;
25199;SDS011;33094;48.782;9.162;2023-05-07T16:43:37;10.13;;;6.03;;
25199;SDS011;33094;48.782;9.162;2023-05-07T16:46:03;9.38;;;6.38;;
25199;SDS011;33094;48.782;9.162;2023-05-07T16:48:28;15.30;;;6.10;;
25199;SDS011;33094;48.782;9.162;2023-05-07T16:50:54;7.22;;;5.30;;
25199;SDS011;33094;48.782;9.162;2023-05-07T16:53:19;7.60;;;5.88;;
25199;SDS011;33094;48.782;9.162;2023-05-07T16:55:45;7.43;;;5.25;;
25199;SDS011;33094;48.782;9.162;2023-05-07T16:58:11;7.68;;;5.03;;
25199;SDS011;33094;48.782;9.162;2023-05-07T17:00:37;5.72;;;4.30;;
25199;SDS011;33094;48.782;9.162;2023-05-07T17:03:03;8.47;;;5.50;;
25199;SDS011;33094;48.782;9.162;2023-05-07T17:05:30;8.95;;;5.68;;
25199;SDS011;33094;48.782;9.162;2023-05-07T17:07:56;7.43;;;5.45;;
25199;SDS011;33094;48.782;9.162;2023-05-07T17:10:22;8.97;;;5.13;;
25199;SDS011;33094;48.782;9.162;2023-05-07T17:12:49;12.32;;;6.00;;
25199;SDS011;33094;48.782;9.162;2023-05-07T17:15:15;10.25;;;6.95;;
25199;SDS011;33094;48.782;9.162;2023-05-07T17:17:41;17.52;;;10.65;;